createdAt,value
2019-04-23T00:00:48.882Z,19.23
2019-04-23T00:02:05.323Z,19.24
2019-04-23T00:03:25.860Z,19.26
2019-04-23T00:04:11.469Z,19.23
2019-04-23T00:05:31.310Z,19.19
2019-04-23T00:06:24.911Z,19.17
2019-04-23T00:07:46.591Z,19.13
2019-04-23T00:08:50.118Z,19.13
2019-04-23T00:09:49.729Z,19.11
2019-04-23T00:10:51.722Z,19.12
2019-04-23T00:12:06.552Z,19.08
2019-04-23T00:13:01.159Z,19.07
2019-04-23T00:14:12.211Z,19.08
2019-04-23T00:15:10.494Z,19.10
2019-04-23T00:16:26.514Z,19.13
2019-04-23T00:17:32.132Z,19.14
2019-04-23T00:18:37.383Z,19.16
2019-04-23T00:19:43.225Z,19.14
2019-04-23T00:20:52.873Z,19.15
2019-04-23T00:22:00.390Z,19.11
2019-04-23T00:23:10.957Z,19.15
2019-04-23T00:24:54.844Z,19.10
2019-04-23T00:25:51.034Z,19.08
2019-04-23T00:27:01.421Z,19.05
2019-04-23T00:27:59.820Z,19.06
2019-04-23T00:29:07.965Z,19.04
2019-04-23T00:32:25.182Z,19.03
2019-04-23T00:33:27.256Z,19.01
2019-04-23T00:34:33.351Z,19.03
2019-04-23T00:35:38.331Z,19.00
2019-04-23T00:37:40.366Z,18.93
2019-04-23T00:38:50.213Z,18.94
2019-04-23T00:39:57.828Z,18.94
2019-04-23T00:41:05.740Z,18.91
2019-04-23T00:42:16.847Z,18.93
2019-04-23T00:44:26.800Z,18.86
2019-04-23T00:45:34.669Z,18.84
2019-04-23T00:46:36.832Z,18.84
2019-04-23T00:47:40.135Z,18.82
2019-04-23T00:48:51.887Z,18.79
2019-04-23T00:50:02.089Z,18.80
2019-04-23T00:50:54.250Z,18.79
2019-04-23T00:52:09.543Z,18.81
2019-04-23T00:53:10.990Z,18.81
2019-04-23T00:54:17.776Z,18.79
2019-04-23T00:55:21.157Z,18.80
2019-04-23T00:57:38.889Z,18.67
2019-04-23T00:58:43.292Z,18.63
2019-04-23T00:59:55.826Z,18.63
2019-04-23T01:00:56.043Z,18.63
2019-04-23T01:02:01.133Z,18.63
2019-04-23T01:03:05.837Z,18.62
2019-04-23T01:04:05.830Z,18.62
2019-04-23T01:05:17.920Z,18.63
2019-04-23T01:07:29.890Z,18.59
2019-04-23T01:08:29.692Z,18.56
2019-04-23T01:09:47.387Z,18.54
2019-04-23T01:10:56.500Z,18.55
2019-04-23T01:12:00.878Z,18.59
2019-04-23T01:13:11.295Z,18.58
2019-04-23T01:14:11.639Z,18.52
2019-04-23T01:15:23.969Z,18.52
2019-04-23T01:17:32.270Z,18.46
2019-04-23T01:19:54.823Z,18.45
2019-04-23T01:20:53.548Z,18.41
2019-04-23T01:21:57.804Z,18.42
2019-04-23T01:23:05.342Z,18.42
2019-04-23T01:24:25.057Z,18.39
2019-04-23T01:25:37.248Z,18.39
2019-04-23T01:27:32.492Z,18.34
2019-04-23T01:28:28.249Z,18.27
2019-04-23T01:29:36.954Z,18.23
2019-04-23T01:30:38.752Z,18.24
2019-04-23T01:31:49.317Z,18.23
2019-04-23T01:33:05.934Z,18.19
2019-04-23T01:33:55.519Z,18.21
2019-04-23T01:35:15.140Z,18.23
2019-04-23T01:37:18.645Z,18.24
2019-04-23T01:38:22.270Z,18.21
2019-04-23T01:39:22.804Z,18.21
2019-04-23T01:41:42.634Z,18.20
2019-04-23T01:42:58.697Z,18.19
2019-04-23T01:44:05.259Z,18.17
2019-04-23T01:45:01.396Z,18.14
2019-04-23T01:46:02.785Z,18.15
2019-04-23T01:47:15.118Z,18.14
2019-04-23T01:48:12.446Z,18.14
2019-04-23T01:49:23.628Z,18.13
2019-04-23T01:50:31.167Z,18.15
2019-04-23T01:51:39.911Z,18.14
2019-04-23T01:52:45.602Z,18.11
2019-04-23T01:53:45.554Z,18.13
2019-04-23T01:54:58.052Z,18.14
2019-04-23T01:56:03.126Z,18.12
2019-04-23T01:57:03.208Z,18.13
2019-04-23T01:59:20.096Z,18.12
2019-04-23T02:00:24.166Z,18.10
2019-04-23T02:01:44.594Z,18.09
2019-04-23T02:02:39.103Z,18.07
2019-04-23T02:03:43.751Z,18.04
2019-04-23T02:04:44.863Z,18.02
2019-04-23T02:05:58.869Z,18.03
2019-04-23T02:06:59.416Z,17.95
2019-04-23T02:08:03.982Z,17.93
2019-04-23T02:09:28.914Z,17.91
2019-04-23T02:10:22.201Z,17.91
2019-04-23T02:11:23.155Z,17.92
2019-04-23T02:12:33.384Z,17.92
2019-04-23T02:13:49.080Z,17.90
2019-04-23T02:14:43.210Z,17.91
2019-04-23T02:16:06.696Z,17.92
2019-04-23T02:16:49.600Z,17.93
2019-04-23T02:18:08.069Z,17.94
2019-04-23T02:19:03.655Z,17.91
2019-04-23T02:20:17.934Z,17.91
2019-04-23T02:21:35.371Z,17.92
2019-04-23T02:22:52.674Z,17.92
2019-04-23T02:23:50.778Z,17.92
2019-04-23T02:24:56.764Z,17.89
2019-04-23T02:26:12.879Z,17.88
2019-04-23T02:27:05.616Z,17.87
2019-04-23T02:28:19.184Z,17.85
2019-04-23T02:29:28.705Z,17.86
2019-04-23T02:31:54.936Z,17.82
2019-04-23T02:32:46.231Z,17.81
2019-04-23T02:35:01.624Z,17.77
2019-04-23T02:37:19.370Z,17.76
2019-04-23T02:39:15.010Z,17.75
2019-04-23T02:40:38.059Z,17.74
2019-04-23T02:41:35.052Z,17.73
2019-04-23T02:43:00.909Z,17.74
2019-04-23T02:43:44.236Z,17.73
2019-04-23T02:44:47.002Z,17.71
2019-04-23T02:48:10.835Z,17.64
2019-04-23T02:50:33.109Z,17.60
2019-04-23T02:51:26.822Z,17.57
2019-04-23T02:52:28.829Z,17.57
2019-04-23T02:53:44.326Z,17.55
2019-04-23T02:55:54.986Z,17.56
2019-04-23T02:56:51.469Z,17.56
2019-04-23T02:58:00.708Z,17.49
2019-04-23T02:59:10.232Z,17.51
2019-04-23T03:00:18.894Z,17.51
2019-04-23T03:02:37.069Z,17.48
2019-04-23T03:03:33.512Z,17.47
2019-04-23T03:05:46.420Z,17.47
2019-04-23T03:06:56.872Z,17.48
2019-04-23T03:07:52.780Z,17.46
2019-04-23T03:10:08.362Z,17.43
2019-04-23T03:11:20.024Z,17.42
2019-04-23T03:12:25.015Z,17.41
2019-04-23T03:13:35.322Z,17.40
2019-04-23T03:14:37.722Z,17.36
2019-04-23T03:15:52.630Z,17.34
2019-04-23T03:16:53.974Z,17.32
2019-04-23T03:18:28.575Z,17.30
2019-04-23T03:19:21.752Z,17.32
2019-04-23T03:20:43.602Z,17.29
2019-04-23T03:22:44.545Z,17.26
2019-04-23T03:24:17.746Z,17.24
2019-04-23T03:26:57.374Z,17.16
2019-04-23T03:27:34.230Z,17.14
2019-04-23T03:29:04.014Z,17.15
2019-04-23T03:29:57.582Z,17.17
2019-04-23T03:36:17.237Z,17.08
2019-04-23T03:37:02.505Z,17.07
2019-04-23T03:37:40.738Z,17.09
2019-04-23T03:40:04.588Z,17.03
2019-04-23T03:40:59.451Z,17.03
2019-04-23T03:41:59.692Z,17.04
2019-04-23T03:43:12.279Z,17.01
2019-04-23T03:44:09.294Z,17.03
2019-04-23T03:47:37.485Z,17.04
2019-04-23T03:50:39.426Z,16.93
2019-04-23T03:52:23.265Z,16.95
2019-04-23T03:52:57.261Z,16.96
2019-04-23T03:54:21.308Z,16.95
2019-04-23T03:55:12.310Z,16.95
2019-04-23T03:56:22.447Z,16.92
2019-04-23T03:58:47.445Z,16.93
2019-04-23T04:00:47.428Z,16.90
2019-04-23T04:05:05.115Z,16.83
2019-04-23T04:07:28.347Z,16.85
2019-04-23T04:08:37.114Z,16.86
2019-04-23T04:09:34.803Z,16.86
2019-04-23T04:10:44.407Z,16.84
2019-04-23T04:11:33.458Z,16.82
2019-04-23T04:14:07.089Z,16.82
2019-04-23T04:15:33.261Z,16.84
2019-04-23T04:17:15.904Z,16.84
2019-04-23T04:18:33.002Z,16.85
2019-04-23T04:19:37.332Z,16.85
2019-04-23T04:20:39.885Z,16.84
2019-04-23T04:23:57.667Z,16.81
2019-04-23T04:29:20.868Z,16.81
2019-04-23T04:30:29.564Z,16.79
2019-04-23T04:36:03.754Z,16.73
2019-04-23T04:38:16.517Z,16.74
2019-04-23T04:39:07.347Z,16.72
2019-04-23T04:42:55.802Z,16.73
2019-04-23T04:43:45.327Z,16.72
2019-04-23T04:45:00.051Z,16.70
2019-04-23T04:46:10.418Z,16.69
2019-04-23T04:48:18.147Z,16.63
2019-04-23T04:50:04.725Z,16.61
2019-04-23T04:51:28.966Z,16.64
2019-04-23T04:54:26.327Z,16.64
2019-04-23T04:55:47.172Z,16.58
2019-04-23T04:56:55.849Z,16.45
2019-04-23T04:59:06.111Z,16.59
2019-04-23T05:00:10.580Z,16.61
2019-04-23T05:01:13.732Z,16.65
2019-04-23T05:02:30.393Z,16.69
2019-04-23T05:03:25.874Z,16.72
2019-04-23T05:04:37.873Z,16.76
2019-04-23T05:06:56.766Z,16.78
2019-04-23T05:07:48.077Z,16.82
2019-04-23T05:09:00.643Z,16.84
2019-04-23T05:12:18.488Z,16.79
2019-04-23T05:15:28.402Z,16.85
2019-04-23T05:16:35.546Z,16.86
2019-04-23T05:18:03.237Z,16.88
2019-04-23T05:20:04.574Z,16.88
2019-04-23T05:21:12.087Z,16.91
2019-04-23T05:22:22.665Z,16.94
2019-04-23T05:23:26.996Z,16.94
2019-04-23T05:24:36.804Z,16.94
2019-04-23T05:25:33.082Z,16.95
2019-04-23T05:26:30.380Z,16.96
2019-04-23T05:27:55.310Z,16.97
2019-04-23T05:30:02.956Z,17.00
2019-04-23T05:31:09.842Z,17.02
2019-04-23T05:32:12.136Z,17.07
2019-04-23T05:34:24.371Z,17.08
2019-04-23T05:35:46.585Z,17.09
2019-04-23T05:38:13.997Z,17.10
2019-04-23T05:39:53.532Z,17.12
2019-04-23T05:41:11.848Z,17.13
2019-04-23T05:42:05.708Z,17.14
2019-04-23T05:43:15.819Z,17.14
2019-04-23T05:44:21.215Z,17.16
2019-04-23T05:45:31.811Z,17.19
2019-04-23T05:46:33.129Z,17.18
2019-04-23T05:47:33.230Z,17.24
2019-04-23T05:48:37.356Z,17.24
2019-04-23T05:49:54.478Z,17.28
2019-04-23T05:52:09.432Z,17.34
2019-04-23T05:54:12.977Z,17.40
2019-04-23T05:55:34.351Z,17.40
2019-04-23T05:56:27.710Z,17.42
2019-04-23T05:57:34.619Z,17.45
2019-04-23T05:58:38.657Z,17.45
2019-04-23T05:59:42.173Z,17.45
2019-04-23T06:00:59.928Z,17.48
2019-04-23T06:03:05.806Z,17.51
2019-04-23T06:05:20.143Z,17.53
2019-04-23T06:06:29.797Z,17.55
2019-04-23T06:07:42.675Z,17.53
2019-04-23T06:08:38.599Z,17.55
2019-04-23T06:09:41.748Z,17.56
2019-04-23T06:10:48.139Z,17.54
2019-04-23T06:12:57.721Z,17.48
2019-04-23T06:14:05.276Z,17.45
2019-04-23T06:16:25.291Z,17.41
2019-04-23T06:17:29.893Z,17.41
2019-04-23T06:18:34.207Z,17.42
2019-04-23T06:19:24.596Z,17.41
2019-04-23T06:20:42.320Z,17.41
2019-04-23T06:22:13.945Z,17.38
2019-04-23T06:23:58.511Z,17.35
2019-04-23T06:25:35.763Z,17.36
2019-04-23T06:26:24.272Z,17.35
2019-04-23T06:27:18.236Z,17.36
2019-04-23T06:28:24.679Z,17.36
2019-04-23T06:29:39.394Z,17.33
2019-04-23T06:30:40.848Z,17.33
2019-04-23T06:31:44.034Z,17.26
2019-04-23T06:32:44.806Z,17.29
2019-04-23T06:33:57.202Z,17.26
2019-04-23T06:34:56.872Z,17.25
2019-04-23T06:36:05.199Z,17.26
2019-04-23T06:37:09.327Z,17.29
2019-04-23T06:39:26.025Z,17.32
2019-04-23T06:40:27.721Z,17.26
2019-04-23T06:41:36.225Z,17.28
2019-04-23T06:42:58.260Z,17.27
2019-04-23T06:44:14.532Z,17.29
2019-04-23T06:45:04.786Z,17.30
2019-04-23T06:46:20.009Z,17.26
2019-04-23T06:47:20.092Z,17.30
2019-04-23T06:48:30.256Z,17.31
2019-04-23T06:50:43.603Z,17.33
2019-04-23T06:51:53.338Z,17.34
2019-04-23T06:52:50.547Z,17.31
2019-04-23T06:53:57.817Z,17.35
2019-04-23T06:56:11.773Z,17.37
2019-04-23T06:58:26.244Z,17.42
2019-04-23T06:59:41.371Z,17.40
2019-04-23T07:00:41.325Z,17.42
2019-04-23T07:01:56.308Z,17.46
2019-04-23T07:02:54.040Z,17.49
2019-04-23T07:03:57.153Z,17.52
2019-04-23T07:05:06.629Z,17.57
2019-04-23T07:08:22.457Z,17.65
2019-04-23T07:09:40.099Z,17.69
2019-04-23T07:10:39.063Z,17.72
2019-04-23T07:11:44.756Z,17.75
2019-04-23T07:12:52.313Z,17.78
2019-04-23T07:13:57.120Z,17.82
2019-04-23T07:15:01.095Z,17.83
2019-04-23T07:16:07.765Z,17.81
2019-04-23T07:17:08.514Z,17.78
2019-04-23T07:18:16.327Z,17.82
2019-04-23T07:19:25.083Z,17.88
2019-04-23T07:20:31.718Z,17.93
2019-04-23T07:21:27.818Z,17.96
2019-04-23T07:22:35.993Z,17.97
2019-04-23T07:23:53.945Z,18.01
2019-04-23T07:24:52.858Z,18.05
2019-04-23T07:26:08.088Z,18.07
2019-04-23T07:27:02.387Z,18.12
2019-04-23T07:28:13.203Z,18.15
2019-04-23T07:29:15.908Z,18.15
2019-04-23T07:30:28.633Z,18.19
2019-04-23T07:32:36.002Z,18.27
2019-04-23T07:33:47.593Z,18.31
2019-04-23T07:34:49.421Z,18.33
2019-04-23T07:35:51.716Z,18.37
2019-04-23T07:37:02.943Z,18.42
2019-04-23T07:38:32.649Z,18.44
2019-04-23T07:39:45.637Z,18.45
2019-04-23T07:40:40.467Z,18.50
2019-04-23T07:42:03.624Z,18.52
2019-04-23T07:43:08.351Z,18.50
2019-04-23T07:45:58.353Z,18.60
2019-04-23T07:47:03.745Z,18.65
2019-04-23T07:48:13.373Z,18.69
2019-04-23T07:49:15.147Z,18.68
2019-04-23T07:51:29.493Z,18.79
2019-04-23T07:52:45.939Z,18.82
2019-04-23T07:53:46.549Z,18.89
2019-04-23T07:54:55.105Z,18.94
2019-04-23T07:55:56.800Z,18.98
2019-04-23T07:57:08.898Z,19.01
2019-04-23T07:58:14.329Z,19.05
2019-04-23T07:59:14.266Z,19.10
2019-04-23T08:00:18.249Z,19.13
2019-04-23T08:01:19.562Z,19.13
2019-04-23T08:02:29.940Z,19.18
2019-04-23T08:03:40.351Z,19.22
2019-04-23T08:04:55.664Z,19.28
2019-04-23T08:05:42.501Z,19.33
2019-04-23T08:06:56.054Z,19.35
2019-04-23T08:09:00.873Z,19.41
2019-04-23T08:10:10.099Z,19.43
2019-04-23T08:12:28.892Z,19.46
2019-04-23T08:13:42.335Z,19.44
2019-04-23T08:14:40.466Z,19.47
2019-04-23T08:15:43.375Z,19.45
2019-04-23T08:16:42.495Z,19.44
2019-04-23T08:17:51.111Z,19.47
2019-04-23T08:20:07.895Z,19.47
2019-04-23T08:21:09.842Z,19.51
2019-04-23T08:23:24.498Z,19.55
2019-04-23T08:24:52.157Z,19.57
2019-04-23T08:26:02.460Z,19.59
2019-04-23T08:26:59.655Z,19.61
2019-04-23T08:28:13.555Z,19.66
2019-04-23T08:30:43.021Z,19.72
2019-04-23T08:32:52.206Z,19.68
2019-04-23T08:34:09.153Z,19.71
2019-04-23T08:35:01.318Z,19.68
2019-04-23T08:36:18.137Z,19.72
2019-04-23T08:37:24.718Z,19.78
2019-04-23T08:38:25.969Z,19.77
2019-04-23T08:39:32.391Z,19.81
2019-04-23T08:40:35.326Z,19.80
2019-04-23T08:41:59.696Z,19.86
2019-04-23T08:44:23.985Z,19.93
2019-04-23T08:45:15.309Z,20.00
2019-04-23T08:46:56.756Z,20.06
2019-04-23T08:48:11.053Z,20.13
2019-04-23T08:49:20.023Z,20.09
2019-04-23T08:50:24.889Z,20.13
2019-04-23T08:51:31.560Z,20.18
2019-04-23T08:52:25.551Z,20.24
2019-04-23T08:53:37.835Z,20.27
2019-04-23T08:55:44.269Z,20.36
2019-04-23T08:56:57.015Z,20.41
2019-04-23T08:57:47.421Z,20.48
2019-04-23T08:59:11.012Z,20.47
2019-04-23T09:00:09.277Z,20.49
2019-04-23T09:02:31.234Z,20.53
2019-04-23T09:04:45.576Z,20.60
2019-04-23T09:06:47.227Z,20.66
2019-04-23T09:09:02.194Z,20.70
2019-04-23T09:10:04.393Z,20.77
2019-04-23T09:11:16.689Z,20.81
2019-04-23T09:12:18.781Z,20.84
2019-04-23T09:14:23.108Z,20.86
2019-04-23T09:15:39.048Z,20.84
2019-04-23T09:16:46.372Z,20.83
2019-04-23T09:17:57.718Z,20.84
2019-04-23T09:18:52.814Z,20.80
2019-04-23T09:21:02.140Z,20.70
2019-04-23T09:23:20.313Z,20.76
2019-04-23T09:24:29.601Z,20.83
2019-04-23T09:25:36.808Z,20.86
2019-04-23T09:26:33.955Z,20.87
2019-04-23T09:27:39.698Z,20.91
2019-04-23T09:30:00.866Z,20.92
2019-04-23T09:31:40.299Z,20.94
2019-04-23T09:32:30.187Z,20.99
2019-04-23T09:33:46.637Z,21.00
2019-04-23T09:34:58.914Z,21.06
2019-04-23T09:36:25.769Z,21.09
2019-04-23T09:37:43.692Z,21.15
2019-04-23T09:38:44.992Z,21.17
2019-04-23T09:39:58.821Z,21.23
2019-04-23T09:41:22.176Z,21.28
2019-04-23T09:42:54.543Z,21.32
2019-04-23T09:44:09.202Z,21.35
2019-04-23T09:46:34.411Z,21.43
2019-04-23T09:47:57.365Z,21.47
2019-04-23T09:50:11.872Z,21.49
2019-04-23T09:51:10.301Z,21.52
2019-04-23T09:52:20.121Z,21.58
2019-04-23T09:53:26.854Z,21.61
2019-04-23T09:54:37.799Z,21.64
2019-04-23T09:56:05.001Z,21.63
2019-04-23T09:56:42.801Z,21.69
2019-04-23T09:57:51.933Z,21.77
2019-04-23T09:59:02.451Z,21.85
2019-04-23T10:00:02.600Z,21.83
2019-04-23T10:01:11.971Z,21.88
2019-04-23T10:02:08.694Z,21.93
2019-04-23T10:03:10.680Z,22.00
2019-04-23T10:04:15.444Z,22.07
2019-04-23T10:05:22.635Z,22.08
2019-04-23T10:06:22.699Z,22.12
2019-04-23T10:07:36.264Z,22.19
2019-04-23T10:08:35.368Z,22.24
2019-04-23T10:09:34.231Z,22.28
2019-04-23T10:10:38.476Z,22.33
2019-04-23T10:11:43.136Z,22.38
2019-04-23T10:12:48.423Z,22.39
2019-04-23T10:13:52.912Z,22.40
2019-04-23T10:15:09.396Z,22.49
2019-04-23T10:16:06.442Z,22.54
2019-04-23T10:17:10.740Z,22.62
2019-04-23T10:18:16.201Z,22.52
2019-04-23T10:19:20.610Z,22.65
2019-04-23T10:20:26.830Z,22.67
2019-04-23T10:21:31.238Z,22.68
2019-04-23T10:22:37.573Z,22.72
2019-04-23T10:23:43.165Z,22.74
2019-04-23T10:24:48.902Z,22.80
2019-04-23T10:25:54.198Z,22.86
2019-04-23T10:26:59.863Z,22.92
2019-04-23T10:28:09.329Z,22.96
2019-04-23T10:29:16.126Z,22.97
2019-04-23T10:30:21.723Z,23.07
2019-04-23T10:31:27.019Z,23.12
2019-04-23T10:32:31.809Z,23.19
2019-04-23T10:33:36.007Z,23.24
2019-04-23T10:34:54.205Z,23.23
2019-04-23T10:35:56.396Z,23.27
2019-04-23T10:36:53.491Z,23.25
2019-04-23T10:38:03.877Z,23.30
2019-04-23T10:39:11.594Z,23.31
2019-04-23T10:40:18.775Z,23.32
2019-04-23T10:41:20.113Z,23.34
2019-04-23T10:42:25.379Z,23.38
2019-04-23T10:43:31.556Z,23.37
2019-04-23T10:44:45.814Z,23.52
2019-04-23T10:46:08.044Z,23.57
2019-04-23T10:48:49.501Z,23.65
2019-04-23T10:49:52.927Z,23.65
2019-04-23T10:52:24.903Z,23.67
2019-04-23T10:53:26.243Z,23.70
2019-04-23T10:54:26.466Z,23.74
2019-04-23T10:55:32.178Z,23.79
2019-04-23T10:56:40.052Z,23.73
2019-04-23T10:57:31.221Z,23.77
2019-04-23T10:58:38.329Z,23.83
2019-04-23T11:01:04.215Z,23.87
2019-04-23T11:02:23.953Z,23.92
2019-04-23T11:03:23.770Z,24.00
2019-04-23T11:04:36.030Z,24.08
2019-04-23T11:05:30.443Z,24.13
2019-04-23T11:06:30.810Z,24.21
2019-04-23T11:08:38.658Z,24.25
2019-04-23T11:10:50.199Z,24.41
2019-04-23T11:12:16.295Z,24.49
2019-04-23T11:13:19.145Z,24.55
2019-04-23T11:15:40.266Z,24.65
2019-04-23T11:17:43.184Z,24.72
2019-04-23T11:18:51.946Z,24.79
2019-04-23T11:20:47.986Z,24.87
2019-04-23T11:22:24.116Z,24.87
2019-04-23T11:22:57.153Z,24.87
2019-04-23T11:24:20.687Z,24.91
2019-04-23T11:25:26.665Z,24.95
2019-04-23T11:26:29.877Z,24.93
2019-04-23T11:29:38.838Z,25.02
2019-04-23T11:30:44.979Z,24.97
2019-04-23T11:32:05.984Z,25.01
2019-04-23T11:33:09.894Z,25.06
2019-04-23T11:34:19.318Z,25.10
2019-04-23T11:35:24.249Z,25.12
2019-04-23T11:36:48.163Z,25.11
2019-04-23T11:38:17.111Z,25.14
2019-04-23T11:38:50.840Z,25.12
2019-04-23T11:40:42.192Z,25.08
2019-04-23T11:42:01.564Z,25.07
2019-04-23T11:44:13.377Z,25.02
2019-04-23T11:45:12.749Z,25.03
2019-04-23T11:46:33.923Z,24.98
2019-04-23T11:47:45.537Z,24.91
2019-04-23T11:51:21.884Z,24.78
2019-04-23T11:51:54.706Z,24.83
2019-04-23T11:52:57.103Z,24.89
2019-04-23T11:55:15.658Z,24.94
2019-04-23T11:58:32.007Z,25.13
2019-04-23T12:00:46.442Z,25.17
2019-04-23T12:03:03.032Z,25.00
2019-04-23T12:04:26.669Z,24.99
2019-04-23T12:05:42.804Z,24.95
2019-04-23T12:06:59.712Z,24.82
2019-04-23T12:08:17.262Z,24.75
2019-04-23T12:09:26.239Z,24.67
2019-04-23T12:11:52.703Z,24.49
2019-04-23T12:12:46.009Z,24.51
2019-04-23T12:15:12.582Z,24.41
2019-04-23T12:16:23.630Z,24.36
2019-04-23T12:17:24.918Z,24.36
2019-04-23T12:18:36.517Z,24.42
2019-04-23T12:20:36.239Z,24.41
2019-04-23T12:21:58.294Z,24.49
2019-04-23T12:24:10.746Z,24.59
2019-04-23T12:25:17.409Z,24.64
2019-04-23T12:27:25.650Z,24.76
2019-04-23T12:28:20.777Z,24.76
2019-04-23T12:29:33.134Z,24.74
2019-04-23T12:30:42.077Z,24.75
2019-04-23T12:31:47.224Z,24.77
2019-04-23T12:32:57.605Z,24.78
2019-04-23T12:33:57.390Z,24.82
2019-04-23T12:35:04.256Z,24.81
2019-04-23T12:36:38.031Z,24.90
2019-04-23T12:37:42.797Z,24.95
2019-04-23T12:38:46.849Z,25.06
2019-04-23T12:40:03.153Z,25.14
2019-04-23T12:40:56.237Z,25.11
2019-04-23T12:42:19.788Z,25.03
2019-04-23T12:43:12.110Z,24.94
2019-04-23T12:44:14.874Z,24.99
2019-04-23T12:48:59.904Z,25.23
2019-04-23T12:53:43.225Z,25.20
2019-04-23T12:55:50.242Z,25.21
2019-04-23T12:57:12.569Z,25.20
2019-04-23T12:58:15.252Z,25.19
2019-04-23T12:59:20.191Z,25.20
2019-04-23T13:01:54.084Z,25.28
2019-04-23T13:03:13.484Z,25.11
2019-04-23T13:03:59.669Z,25.07
2019-04-23T13:05:10.207Z,24.91
2019-04-23T13:06:17.259Z,25.02
2019-04-23T13:07:28.652Z,25.03
2019-04-23T13:08:38.029Z,25.03
2019-04-23T13:09:45.720Z,24.99
2019-04-23T13:10:45.366Z,25.02
2019-04-23T13:11:51.672Z,25.02
2019-04-23T13:13:11.328Z,25.00
2019-04-23T13:14:08.881Z,24.88
2019-04-23T13:16:25.287Z,24.85
2019-04-23T13:19:51.384Z,24.93
2019-04-23T13:23:03.083Z,24.96
2019-04-23T13:24:27.075Z,24.95
2019-04-23T13:27:05.804Z,24.89
2019-04-23T13:28:08.397Z,24.95
2019-04-23T13:29:23.808Z,24.79
2019-04-23T13:30:23.299Z,24.69
2019-04-23T13:31:21.753Z,24.63
2019-04-23T13:32:36.020Z,24.70
2019-04-23T13:35:25.706Z,24.82
2019-04-23T13:37:00.323Z,24.83
2019-04-23T13:39:18.259Z,24.70
2019-04-23T13:40:24.735Z,24.67
2019-04-23T13:42:40.850Z,24.54
2019-04-23T13:43:40.524Z,24.53
2019-04-23T13:44:45.546Z,24.51
2019-04-23T13:47:03.551Z,24.50
2019-04-23T13:48:03.442Z,24.53
2019-04-23T13:49:08.724Z,24.54
2019-04-23T13:53:40.788Z,24.69
2019-04-23T13:55:04.032Z,24.70
2019-04-23T13:55:47.090Z,24.73
2019-04-23T13:57:24.017Z,24.74
2019-04-23T13:58:11.688Z,24.71
2019-04-23T13:59:21.847Z,24.71
2019-04-23T14:00:44.679Z,24.76
2019-04-23T14:01:30.903Z,24.79
2019-04-23T14:02:40.400Z,24.69
2019-04-23T14:03:42.928Z,24.63
2019-04-23T14:06:10.800Z,24.60
2019-04-23T14:07:21.355Z,24.64
2019-04-23T14:08:20.495Z,24.69
2019-04-23T14:09:37.253Z,24.71
2019-04-23T14:10:40.155Z,24.68
2019-04-23T14:11:51.796Z,24.60
2019-04-23T14:13:08.293Z,24.58
2019-04-23T14:15:04.381Z,24.63
2019-04-23T14:16:22.079Z,24.63
2019-04-23T14:17:26.829Z,24.67
2019-04-23T14:19:22.616Z,24.64
2019-04-23T14:20:35.299Z,24.58
2019-04-23T14:21:40.625Z,24.56
2019-04-23T14:22:59.993Z,24.50
2019-04-23T14:27:20.099Z,24.51
2019-04-23T14:28:28.148Z,24.53
2019-04-23T14:29:42.743Z,24.58
2019-04-23T14:31:43.444Z,24.59
2019-04-23T14:33:03.447Z,24.61
2019-04-23T14:35:21.324Z,24.62
2019-04-23T14:36:19.071Z,24.61
2019-04-23T14:37:17.029Z,24.61
2019-04-23T14:38:33.261Z,24.67
2019-04-23T14:39:31.758Z,24.67
2019-04-23T14:40:44.912Z,24.65
2019-04-23T14:42:06.887Z,24.64
2019-04-23T14:43:03.561Z,24.64
2019-04-23T14:44:12.857Z,24.65
2019-04-23T14:45:23.069Z,24.66
2019-04-23T14:47:39.751Z,24.57
2019-04-23T14:48:23.593Z,24.53
2019-04-23T14:50:39.843Z,24.53
2019-04-23T14:51:51.619Z,24.56
2019-04-23T14:53:06.776Z,24.62
2019-04-23T14:54:09.277Z,24.66
2019-04-23T14:55:40.596Z,24.69
2019-04-23T14:56:23.944Z,24.68
2019-04-23T14:57:35.109Z,24.63
2019-04-23T14:58:51.660Z,24.57
2019-04-23T14:59:36.221Z,24.52
2019-04-23T15:01:49.148Z,24.52
2019-04-23T15:03:00.209Z,24.47
2019-04-23T15:03:55.539Z,24.44
2019-04-23T15:05:15.497Z,24.47
2019-04-23T15:06:19.850Z,24.50
2019-04-23T15:07:25.885Z,24.49
2019-04-23T15:08:32.905Z,24.55
2019-04-23T15:09:37.105Z,24.58
2019-04-23T15:10:41.085Z,24.61
2019-04-23T15:12:51.991Z,24.65
2019-04-23T15:13:55.398Z,24.67
2019-04-23T15:15:18.006Z,24.65
2019-04-23T15:16:22.251Z,24.68
2019-04-23T15:17:20.576Z,24.70
2019-04-23T15:18:48.555Z,24.70
2019-04-23T15:22:07.847Z,24.65
2019-04-23T15:23:37.646Z,24.66
2019-04-23T15:24:25.085Z,24.62
2019-04-23T15:25:53.327Z,24.59
2019-04-23T15:27:33.048Z,24.65
2019-04-23T15:28:18.879Z,24.50
2019-04-23T15:29:44.997Z,24.51
2019-04-23T15:30:57.527Z,24.53
2019-04-23T15:32:03.204Z,24.54
2019-04-23T15:33:30.010Z,24.49
2019-04-23T15:34:14.115Z,24.51
2019-04-23T15:35:31.334Z,24.50
2019-04-23T15:36:50.818Z,24.50
2019-04-23T15:39:49.591Z,24.48
2019-04-23T15:40:51.215Z,24.50
2019-04-23T15:42:08.076Z,24.53
2019-04-23T15:45:15.130Z,24.54
2019-04-23T15:46:27.847Z,24.54
2019-04-23T15:47:32.007Z,24.58
2019-04-23T15:48:31.344Z,24.59
2019-04-23T15:49:45.034Z,24.61
2019-04-23T15:50:54.007Z,24.59
2019-04-23T15:52:56.495Z,24.59
2019-04-23T15:55:05.900Z,24.58
2019-04-23T15:56:26.491Z,24.57
2019-04-23T15:57:43.270Z,24.59
2019-04-23T15:58:33.295Z,24.56
2019-04-23T15:59:47.928Z,24.57
2019-04-23T16:00:42.270Z,24.61
2019-04-23T16:01:39.440Z,24.63
2019-04-23T16:02:24.781Z,24.66
2019-04-23T16:03:29.980Z,24.66
2019-04-23T16:04:35.722Z,24.67
2019-04-23T16:05:41.268Z,24.69
2019-04-23T16:06:45.756Z,24.67
2019-04-23T16:08:11.487Z,24.66
2019-04-23T16:09:16.266Z,24.67
2019-04-23T16:10:28.875Z,24.65
2019-04-23T16:12:41.649Z,24.67
2019-04-23T16:14:05.789Z,24.69
2019-04-23T16:16:07.730Z,24.59
2019-04-23T16:17:11.986Z,24.61
2019-04-23T16:18:33.238Z,24.63
2019-04-23T16:19:43.230Z,24.63
2019-04-23T16:22:51.403Z,24.60
2019-04-23T16:24:07.194Z,24.62
2019-04-23T16:26:24.220Z,24.62
2019-04-23T16:27:17.017Z,24.67
2019-04-23T16:28:42.437Z,24.69
2019-04-23T16:29:46.895Z,24.70
2019-04-23T16:30:40.814Z,24.70
2019-04-23T16:31:56.480Z,24.68
2019-04-23T16:34:14.120Z,24.59
2019-04-23T16:35:20.070Z,24.61
2019-04-23T16:36:19.792Z,24.65
2019-04-23T16:37:24.881Z,24.67
2019-04-23T16:39:40.412Z,24.70
2019-04-23T16:40:57.191Z,24.71
2019-04-23T16:41:54.721Z,24.73
2019-04-23T16:43:03.796Z,24.72
2019-04-23T16:44:09.398Z,24.73
2019-04-23T16:45:21.277Z,24.74
2019-04-23T16:47:23.943Z,24.68
2019-04-23T16:48:55.489Z,24.70
2019-04-23T16:50:56.528Z,24.73
2019-04-23T16:51:45.488Z,24.68
2019-04-23T16:52:51.896Z,24.69
2019-04-23T16:54:01.400Z,24.71
2019-04-23T16:55:09.284Z,24.74
2019-04-23T16:58:25.138Z,24.79
2019-04-23T16:59:48.115Z,24.80
2019-04-23T17:00:43.766Z,24.80
2019-04-23T17:01:48.885Z,24.81
2019-04-23T17:02:59.727Z,24.82
2019-04-23T17:04:01.414Z,24.81
2019-04-23T17:05:02.798Z,24.82
2019-04-23T17:06:12.282Z,24.83
2019-04-23T17:07:06.905Z,24.83
2019-04-23T17:09:29.064Z,24.83
2019-04-23T17:10:38.481Z,24.84
2019-04-23T17:11:34.231Z,24.85
2019-04-23T17:12:46.211Z,24.86
2019-04-23T17:13:44.734Z,24.85
2019-04-23T17:14:54.486Z,24.85
2019-04-23T17:16:12.128Z,24.85
2019-04-23T17:16:59.752Z,24.83
2019-04-23T17:18:12.224Z,24.83
2019-04-23T17:21:34.151Z,24.83
2019-04-23T17:22:31.378Z,24.82
2019-04-23T17:24:54.120Z,24.81
2019-04-23T17:25:55.943Z,24.80
2019-04-23T17:27:33.103Z,24.80
2019-04-23T17:28:12.738Z,24.80
2019-04-23T17:29:15.994Z,24.80
2019-04-23T17:30:20.257Z,24.79
2019-04-23T17:32:36.737Z,24.76
2019-04-23T17:35:05.246Z,24.74
2019-04-23T17:36:09.021Z,24.73
2019-04-23T17:38:21.190Z,24.68
2019-04-23T17:39:16.501Z,24.67
2019-04-23T17:40:47.551Z,24.66
2019-04-23T17:42:07.756Z,24.59
2019-04-23T17:43:12.277Z,24.59
2019-04-23T17:44:18.831Z,24.58
2019-04-23T17:46:25.592Z,24.56
2019-04-23T17:47:35.241Z,24.55
2019-04-23T17:48:40.610Z,24.54
2019-04-23T17:50:03.246Z,24.51
2019-04-23T17:52:04.785Z,24.49
2019-04-23T17:53:16.675Z,24.47
2019-04-23T17:54:16.221Z,24.47
2019-04-23T17:55:22.246Z,24.45
2019-04-23T17:56:35.877Z,24.44